Vanquish — PHCU — position and weather

sailwx.info

Track history (hours):
 
Tides and Currents Weather Stations Pressure Air Temp Water Temp Dewpoint Dewpoint Depression Visibility Wind Speed Wind Dir Waves Ship Positions

Vanquish

Last reported at 2017-Mar-24 17:32 UTC. Time now 2017-Mar-24 18:01 UTC.
Position N 53°38' W 000°12'.

MMSI: 246138952.

Date/timePositionNaut miles runAvg speedWind from/ knotsBaromVisibWave heightAir tempDewpointWater temp
2017-Mar-24 17:32N 53°38' W 000°12'0 0.0
2017-Mar-24 16:32N 53°38' W 000°12'0 0.0
2017-Mar-24 15:32N 53°38' W 000°12'0 0.0
2017-Mar-24 14:32N 53°38' W 000°12'0 0.0
2017-Mar-24 13:32N 53°38' W 000°12'0 0.0
2017-Mar-24 12:32N 53°38' W 000°12'0 0.0
2017-Mar-24 11:32N 53°38' W 000°12'0 0.2
2017-Mar-24 10:33N 53°38' W 000°11'1 0.7
2017-Mar-24 09:33N 53°38' W 000°10'1111.1
2017-Mar-24 08:33N 53°34' E 000°07'4911.9
2017-Mar-24 04:26N 53°02' E 001°09'1112.0
2017-Mar-24 03:33N 52°57' E 001°25'1312.5
2017-Mar-24 02:33N 52°51' E 001°43'4613.9
2017-Mar-23 23:15N 52°27' E 002°47'1013.5
2017-Mar-23 22:29N 52°21' E 003°01'1212.9
2017-Mar-23 21:31N 52°14' E 003°18'1312.2
2017-Mar-23 20:30N 52°07' E 003°35'1213.0
2017-Mar-23 19:33N 52°03' E 003°53'1110.8
2017-Mar-23 18:33N 51°58' E 004°09'1010.3
2017-Mar-23 17:33N 51°51' E 004°21'9 8.9
2017-Mar-23 16:33N 51°48' E 004°35'7 6.9
2017-Mar-23 15:33N 51°41' E 004°35'1 0.6
2017-Mar-23 14:33N 51°41' E 004°36'0 0.0
2017-Mar-23 13:32N 51°41' E 004°36'0 0.0
2017-Mar-23 12:33N 51°41' E 004°36'0 0.0
2017-Mar-23 11:33N 51°41' E 004°36'0 0.0
2017-Mar-23 10:33N 51°41' E 004°36'0 0.0
2017-Mar-23 09:33N 51°41' E 004°36'1 0.9
2017-Mar-23 08:33N 51°42' E 004°36'7 7.2
2017-Mar-23 07:33N 51°49' E 004°34'9 8.9
2017-Mar-23 06:33N 51°52' E 004°20'7 7.5
2017-Mar-23 05:33N 51°57' E 004°11'1110.7
2017-Mar-23 04:34N 52°00' E 003°55'7213.4
2017-Mar-22 23:09N 52°38' E 002°14'813.2
2017-Mar-22 22:33N 52°43' E 002°03'1312.9
2017-Mar-22 21:33N 52°50' E 001°45'1212.5
2017-Mar-22 20:33N 52°56' E 001°27'1212.4
2017-Mar-22 19:33N 53°02' E 001°09'4112.8
2017-Mar-22 16:21N 53°30' E 000°19'1012.9
2017-Mar-22 15:33N 53°35' E 000°04'10 9.6
2017-Mar-22 14:33N 53°38' W 000°11'0 0.1
2017-Mar-22 13:31N 53°38' W 000°12'0 0.0
2017-Mar-22 12:31N 53°38' W 000°12'0 0.0
2017-Mar-22 11:31N 53°38' W 000°12'0 0.0
2017-Mar-22 10:31N 53°38' W 000°12'0 0.0
2017-Mar-22 09:33N 53°38' W 000°12'0 0.0
2017-Mar-22 08:33N 53°38' W 000°12'0 0.0
2017-Mar-22 07:33N 53°38' W 000°12'0 0.1
2017-Mar-22 06:33N 53°38' W 000°11'5 5.1
2017-Mar-22 05:33N 53°36' W 000°03'5312.2
2017-Mar-22 01:13N 53°03' E 001°06'912.9
2017-Mar-22 00:33N 52°59' E 001°18'1313.2
2017-Mar-21 23:33N 52°53' E 001°38'8714.1
2017-Mar-21 17:23N 52°06' E 003°38'1012.5
2017-Mar-21 16:33N 52°02' E 003°54'1111.1
2017-Mar-21 15:33N 51°57' E 004°10'9 9.4
2017-Mar-21 14:33N 51°51' E 004°21'9 8.8
2017-Mar-21 13:33N 51°48' E 004°35'7 7.3
2017-Mar-21 12:33N 51°41' E 004°36'0 0.4
2017-Mar-21 11:33N 51°41' E 004°36'0 0.0
2017-Mar-21 10:33N 51°41' E 004°36'0 0.0
2017-Mar-21 09:30N 51°41' E 004°36'0 0.0
2017-Mar-21 08:33N 51°41' E 004°36'0 0.0
2017-Mar-21 07:33N 51°41' E 004°36'0 0.0
2017-Mar-21 06:33N 51°41' E 004°36'0 0.0
2017-Mar-21 05:33N 51°41' E 004°36'0 0.0
2017-Mar-21 04:33N 51°41' E 004°36'0 0.0
2017-Mar-21 03:34N 51°41' E 004°36'0 0.0
2017-Mar-21 02:33N 51°41' E 004°36'0 0.0
2017-Mar-21 01:33N 51°41' E 004°36'0 0.0
2017-Mar-21 00:33N 51°41' E 004°36'0 0.0
2017-Mar-20 23:33N 51°41' E 004°36'0 0.0
2017-Mar-20 22:33N 51°41' E 004°36'0 0.0
2017-Mar-20 21:34N 51°41' E 004°36'0 0.1
2017-Mar-20 20:33N 51°41' E 004°36'0 0.0
2017-Mar-20 19:33N 51°41' E 004°36'0 0.0
2017-Mar-20 18:33N 51°41' E 004°36'0 0.0
2017-Mar-20 17:33N 51°41' E 004°36'0 0.0
2017-Mar-20 16:33N 51°41' E 004°36'0 0.0
2017-Mar-20 15:30N 51°41' E 004°36'0 0.0
2017-Mar-20 14:33N 51°41' E 004°36'0 0.0
2017-Mar-20 13:33N 51°41' E 004°36'0 0.0
2017-Mar-20 12:31N 51°41' E 004°36'0 0.0
2017-Mar-20 11:30N 51°41' E 004°36'0 0.0
2017-Mar-20 10:33N 51°41' E 004°36'0 0.0
2017-Mar-20 09:33N 51°41' E 004°36'0 0.0
2017-Mar-20 08:31N 51°41' E 004°36'0 0.0
2017-Mar-20 07:33N 51°41' E 004°36'0 0.0
2017-Mar-20 06:33N 51°41' E 004°36'0 0.0
2017-Mar-20 05:33N 51°41' E 004°36'0 0.0
2017-Mar-20 04:33N 51°41' E 004°36'0 0.0
2017-Mar-20 03:33N 51°41' E 004°36'0 0.0
2017-Mar-20 02:33N 51°41' E 004°36'0 0.0
2017-Mar-20 01:33N 51°41' E 004°36'0 0.0
2017-Mar-20 00:33N 51°41' E 004°36'0 0.0
2017-Mar-19 23:34N 51°41' E 004°36'0 0.0
2017-Mar-19 22:33N 51°41' E 004°36'0 0.0
2017-Mar-19 21:33N 51°41' E 004°36'0 0.0
2017-Mar-19 20:33N 51°41' E 004°36'0 0.0
2017-Mar-19 19:33N 51°41' E 004°36'0 0.0
2017-Mar-19 18:33N 51°41' E 004°36'0 0.0
2017-Mar-19 17:33N 51°41' E 004°36'0 0.0
2017-Mar-19 16:34N 51°41' E 004°36'0 0.0
2017-Mar-19 15:33N 51°41' E 004°36'0 0.2
2017-Mar-19 14:33N 51°41' E 004°36'0 0.0
2017-Mar-19 13:32N 51°41' E 004°36'0 0.0
2017-Mar-19 12:31N 51°41' E 004°36'0 0.0
2017-Mar-19 11:33N 51°41' E 004°36'0 0.0
2017-Mar-19 10:33N 51°41' E 004°36'0 0.0
2017-Mar-19 09:32N 51°41' E 004°36'0 0.0
2017-Mar-19 08:34N 51°41' E 004°36'0 0.0
2017-Mar-19 07:32N 51°41' E 004°36'0 0.0
2017-Mar-19 06:33N 51°41' E 004°36'0 0.0
2017-Mar-19 05:33N 51°41' E 004°36'0 0.0
2017-Mar-19 04:34N 51°41' E 004°36'0 0.0
2017-Mar-19 03:32N 51°41' E 004°36'0 0.0
2017-Mar-19 02:33N 51°41' E 004°36'0 0.0
2017-Mar-19 01:33N 51°41' E 004°36'0 0.0
2017-Mar-19 00:33N 51°41' E 004°36'0 0.0
2017-Mar-18 23:33N 51°41' E 004°36'0 0.0
2017-Mar-18 22:32N 51°41' E 004°36'0 0.0
2017-Mar-18 21:33N 51°41' E 004°36'0 0.0
2017-Mar-18 20:33N 51°41' E 004°36'0 0.0
2017-Mar-18 19:33N 51°41' E 004°36'0 0.0
2017-Mar-18 18:34N 51°41' E 004°36'0 0.0
2017-Mar-18 17:30N 51°41' E 004°36'0 0.0
2017-Mar-18 16:33N 51°41' E 004°36'0 0.0
2017-Mar-18 15:33N 51°41' E 004°36'0 0.0
2017-Mar-18 14:33N 51°41' E 004°36'0 0.0
2017-Mar-18 13:34N 51°41' E 004°36'0 0.0
2017-Mar-18 12:33N 51°41' E 004°36'0 0.0
2017-Mar-18 11:33N 51°41' E 004°36'0 0.0
2017-Mar-18 10:33N 51°41' E 004°36'6 5.9
2017-Mar-18 09:33N 51°47' E 004°38'9 8.9
2017-Mar-18 08:33N 51°51' E 004°25'1010.3
2017-Mar-18 07:33N 51°57' E 004°11'1413.9
2017-Mar-18 06:33N 52°02' E 003°50'13014.4
2017-Mar-17 21:33N 53°11' E 000°50'1514.7
2017-Mar-17 20:33N 53°22' E 000°33'1514.7
2017-Mar-17 19:33N 53°32' E 000°15'1211.8
2017-Mar-17 18:33N 53°36' W 000°04'5 5.0
2017-Mar-17 17:33N 53°38' W 000°12'0 0.1
2017-Mar-17 16:33N 53°38' W 000°12'0 0.0
2017-Mar-17 15:21N 53°38' W 000°12'0 0.0
2017-Mar-17 14:33N 53°38' W 000°12'0 0.0
2017-Mar-17 13:33N 53°38' W 000°12'0 0.0
2017-Mar-17 12:33N 53°38' W 000°12'0 0.0
2017-Mar-17 11:33N 53°38' W 000°12'0 0.0
2017-Mar-17 10:33N 53°38' W 000°12'2 2.2
2017-Mar-17 09:33N 53°38' W 000°08'1110.5
2017-Mar-17 08:33N 53°33' E 000°08'10 9.6
2017-Mar-17 07:33N 53°29' E 000°23'1211.6
2017-Mar-17 06:33N 53°20' E 000°36'13212.8
2017-Mar-16 20:16N 52°07' E 003°37'1013.9
2017-Mar-16 19:34N 52°04' E 003°52'1211.7
2017-Mar-16 18:33N 51°58' E 004°08'1111.4
2017-Mar-16 17:33N 51°51' E 004°22'9 9.3
2017-Mar-16 16:34N 51°48' E 004°37'7 7.2
2017-Mar-16 15:33N 51°41' E 004°36'0 0.1
2017-Mar-16 14:30N 51°41' E 004°36'0 0.0
2017-Mar-16 13:18N 51°41' E 004°36'0 0.0
2017-Mar-16 12:32N 51°41' E 004°36'0 0.0
2017-Mar-16 11:33N 51°41' E 004°36'0 0.0
2017-Mar-16 10:33N 51°41' E 004°36'0 0.0
2017-Mar-16 09:33N 51°41' E 004°36'0 0.0
2017-Mar-16 08:33N 51°41' E 004°36'1 0.7
2017-Mar-16 07:33N 51°42' E 004°35'8 7.5
2017-Mar-16 06:33N 51°49' E 004°34'9 9.4
2017-Mar-16 05:33N 51°53' E 004°20'1312.7
2017-Mar-16 04:33N 51°59' E 004°02'1312.0
2017-Mar-16 03:30N 52°03' E 003°42'1010.1
2017-Mar-16 02:32N 52°08' E 003°29'1110.6
2017-Mar-16 01:31N 52°13' E 003°14'1111.5
2017-Mar-16 00:33N 52°19' E 002°58'1711.9
2017-Mar-15 23:08N 52°28' E 002°35'2113.3
2017-Mar-15 21:32N 52°40' E 002°06'9114.7
2017-Mar-15 15:22N 53°34' E 000°05'1012.5
2017-Mar-15 14:33N 53°38' W 000°11'1 0.6
2017-Mar-15 13:33N 53°38' W 000°12'0 0.0
2017-Mar-15 12:33N 53°38' W 000°12'0 0.0
2017-Mar-15 11:33N 53°38' W 000°12'0 0.0
2017-Mar-15 10:33N 53°38' W 000°12'0 0.0
2017-Mar-15 09:33N 53°38' W 000°12'0 0.0
2017-Mar-15 08:30N 53°38' W 000°12'0 0.0
2017-Mar-15 07:33N 53°38' W 000°12'0 0.1
2017-Mar-15 06:33N 53°38' W 000°12'6 5.8
2017-Mar-15 05:33N 53°36' W 000°02'  
Track history (hours):
 
Tides and Currents Weather Stations Pressure Air Temp Water Temp Dewpoint Dewpoint Depression Visibility Wind Speed Wind Dir Waves Ship Positions

Vanquish

Last reported at 2017-Mar-24 17:32 UTC. Time now 2017-Mar-24 18:01 UTC.
Position N 53°38' W 000°12'.

MMSI: 246138952.

Date/timePositionNaut miles runAvg speedWind from/ knotsBaromVisibWave heightAir tempDewpointWater temp
2017-Mar-24 17:32N 53°38' W 000°12'0 0.0
2017-Mar-24 16:32N 53°38' W 000°12'0 0.0
2017-Mar-24 15:32N 53°38' W 000°12'0 0.0
2017-Mar-24 14:32N 53°38' W 000°12'0 0.0
2017-Mar-24 13:32N 53°38' W 000°12'0 0.0
2017-Mar-24 12:32N 53°38' W 000°12'0 0.0
2017-Mar-24 11:32N 53°38' W 000°12'0 0.2
2017-Mar-24 10:33N 53°38' W 000°11'1 0.7
2017-Mar-24 09:33N 53°38' W 000°10'1111.1
2017-Mar-24 08:33N 53°34' E 000°07'4911.9
2017-Mar-24 04:26N 53°02' E 001°09'1112.0
2017-Mar-24 03:33N 52°57' E 001°25'1312.5
2017-Mar-24 02:33N 52°51' E 001°43'4613.9
2017-Mar-23 23:15N 52°27' E 002°47'1013.5
2017-Mar-23 22:29N 52°21' E 003°01'1212.9
2017-Mar-23 21:31N 52°14' E 003°18'1312.2
2017-Mar-23 20:30N 52°07' E 003°35'1213.0
2017-Mar-23 19:33N 52°03' E 003°53'1110.8
2017-Mar-23 18:33N 51°58' E 004°09'1010.3
2017-Mar-23 17:33N 51°51' E 004°21'9 8.9
2017-Mar-23 16:33N 51°48' E 004°35'7 6.9
2017-Mar-23 15:33N 51°41' E 004°35'1 0.6
2017-Mar-23 14:33N 51°41' E 004°36'0 0.0
2017-Mar-23 13:32N 51°41' E 004°36'0 0.0
2017-Mar-23 12:33N 51°41' E 004°36'0 0.0
2017-Mar-23 11:33N 51°41' E 004°36'0 0.0
2017-Mar-23 10:33N 51°41' E 004°36'0 0.0
2017-Mar-23 09:33N 51°41' E 004°36'1 0.9
2017-Mar-23 08:33N 51°42' E 004°36'7 7.2
2017-Mar-23 07:33N 51°49' E 004°34'9 8.9
2017-Mar-23 06:33N 51°52' E 004°20'7 7.5
2017-Mar-23 05:33N 51°57' E 004°11'1110.7
2017-Mar-23 04:34N 52°00' E 003°55'7213.4
2017-Mar-22 23:09N 52°38' E 002°14'813.2
2017-Mar-22 22:33N 52°43' E 002°03'1312.9
2017-Mar-22 21:33N 52°50' E 001°45'1212.5
2017-Mar-22 20:33N 52°56' E 001°27'1212.4
2017-Mar-22 19:33N 53°02' E 001°09'4112.8
2017-Mar-22 16:21N 53°30' E 000°19'1012.9
2017-Mar-22 15:33N 53°35' E 000°04'10 9.6
2017-Mar-22 14:33N 53°38' W 000°11'0 0.1
2017-Mar-22 13:31N 53°38' W 000°12'0 0.0
2017-Mar-22 12:31N 53°38' W 000°12'0 0.0
2017-Mar-22 11:31N 53°38' W 000°12'0 0.0
2017-Mar-22 10:31N 53°38' W 000°12'0 0.0
2017-Mar-22 09:33N 53°38' W 000°12'0 0.0
2017-Mar-22 08:33N 53°38' W 000°12'0 0.0
2017-Mar-22 07:33N 53°38' W 000°12'0 0.1
2017-Mar-22 06:33N 53°38' W 000°11'5 5.1
2017-Mar-22 05:33N 53°36' W 000°03'5312.2
2017-Mar-22 01:13N 53°03' E 001°06'912.9
2017-Mar-22 00:33N 52°59' E 001°18'1313.2
2017-Mar-21 23:33N 52°53' E 001°38'8714.1
2017-Mar-21 17:23N 52°06' E 003°38'1012.5
2017-Mar-21 16:33N 52°02' E 003°54'1111.1
2017-Mar-21 15:33N 51°57' E 004°10'9 9.4
2017-Mar-21 14:33N 51°51' E 004°21'9 8.8
2017-Mar-21 13:33N 51°48' E 004°35'7 7.3
2017-Mar-21 12:33N 51°41' E 004°36'0 0.4
2017-Mar-21 11:33N 51°41' E 004°36'0 0.0
2017-Mar-21 10:33N 51°41' E 004°36'0 0.0
2017-Mar-21 09:30N 51°41' E 004°36'0 0.0
2017-Mar-21 08:33N 51°41' E 004°36'0 0.0
2017-Mar-21 07:33N 51°41' E 004°36'0 0.0
2017-Mar-21 06:33N 51°41' E 004°36'0 0.0
2017-Mar-21 05:33N 51°41' E 004°36'0 0.0
2017-Mar-21 04:33N 51°41' E 004°36'0 0.0
2017-Mar-21 03:34N 51°41' E 004°36'0 0.0
2017-Mar-21 02:33N 51°41' E 004°36'0 0.0
2017-Mar-21 01:33N 51°41' E 004°36'0 0.0
2017-Mar-21 00:33N 51°41' E 004°36'0 0.0
2017-Mar-20 23:33N 51°41' E 004°36'0 0.0
2017-Mar-20 22:33N 51°41' E 004°36'0 0.0
2017-Mar-20 21:34N 51°41' E 004°36'0 0.1
2017-Mar-20 20:33N 51°41' E 004°36'0 0.0
2017-Mar-20 19:33N 51°41' E 004°36'0 0.0
2017-Mar-20 18:33N 51°41' E 004°36'0 0.0
2017-Mar-20 17:33N 51°41' E 004°36'0 0.0
2017-Mar-20 16:33N 51°41' E 004°36'0 0.0
2017-Mar-20 15:30N 51°41' E 004°36'0 0.0
2017-Mar-20 14:33N 51°41' E 004°36'0 0.0
2017-Mar-20 13:33N 51°41' E 004°36'0 0.0
2017-Mar-20 12:31N 51°41' E 004°36'0 0.0
2017-Mar-20 11:30N 51°41' E 004°36'0 0.0
2017-Mar-20 10:33N 51°41' E 004°36'0 0.0
2017-Mar-20 09:33N 51°41' E 004°36'0 0.0
2017-Mar-20 08:31N 51°41' E 004°36'0 0.0
2017-Mar-20 07:33N 51°41' E 004°36'0 0.0
2017-Mar-20 06:33N 51°41' E 004°36'0 0.0
2017-Mar-20 05:33N 51°41' E 004°36'0 0.0
2017-Mar-20 04:33N 51°41' E 004°36'0 0.0
2017-Mar-20 03:33N 51°41' E 004°36'0 0.0
2017-Mar-20 02:33N 51°41' E 004°36'0 0.0
2017-Mar-20 01:33N 51°41' E 004°36'0 0.0
2017-Mar-20 00:33N 51°41' E 004°36'0 0.0
2017-Mar-19 23:34N 51°41' E 004°36'0 0.0
2017-Mar-19 22:33N 51°41' E 004°36'0 0.0
2017-Mar-19 21:33N 51°41' E 004°36'0 0.0
2017-Mar-19 20:33N 51°41' E 004°36'0 0.0
2017-Mar-19 19:33N 51°41' E 004°36'0 0.0
2017-Mar-19 18:33N 51°41' E 004°36'0 0.0
2017-Mar-19 17:33N 51°41' E 004°36'0 0.0
2017-Mar-19 16:34N 51°41' E 004°36'0 0.0
2017-Mar-19 15:33N 51°41' E 004°36'0 0.2
2017-Mar-19 14:33N 51°41' E 004°36'0 0.0
2017-Mar-19 13:32N 51°41' E 004°36'0 0.0
2017-Mar-19 12:31N 51°41' E 004°36'0 0.0
2017-Mar-19 11:33N 51°41' E 004°36'0 0.0
2017-Mar-19 10:33N 51°41' E 004°36'0 0.0
2017-Mar-19 09:32N 51°41' E 004°36'0 0.0
2017-Mar-19 08:34N 51°41' E 004°36'0 0.0
2017-Mar-19 07:32N 51°41' E 004°36'0 0.0
2017-Mar-19 06:33N 51°41' E 004°36'0 0.0
2017-Mar-19 05:33N 51°41' E 004°36'0 0.0
2017-Mar-19 04:34N 51°41' E 004°36'0 0.0
2017-Mar-19 03:32N 51°41' E 004°36'0 0.0
2017-Mar-19 02:33N 51°41' E 004°36'0 0.0
2017-Mar-19 01:33N 51°41' E 004°36'0 0.0
2017-Mar-19 00:33N 51°41' E 004°36'0 0.0
2017-Mar-18 23:33N 51°41' E 004°36'0 0.0
2017-Mar-18 22:32N 51°41' E 004°36'0 0.0
2017-Mar-18 21:33N 51°41' E 004°36'0 0.0
2017-Mar-18 20:33N 51°41' E 004°36'0 0.0
2017-Mar-18 19:33N 51°41' E 004°36'0 0.0
2017-Mar-18 18:34N 51°41' E 004°36'0 0.0
2017-Mar-18 17:30N 51°41' E 004°36'0 0.0
2017-Mar-18 16:33N 51°41' E 004°36'0 0.0
2017-Mar-18 15:33N 51°41' E 004°36'0 0.0
2017-Mar-18 14:33N 51°41' E 004°36'0 0.0
2017-Mar-18 13:34N 51°41' E 004°36'0 0.0
2017-Mar-18 12:33N 51°41' E 004°36'0 0.0
2017-Mar-18 11:33N 51°41' E 004°36'0 0.0
2017-Mar-18 10:33N 51°41' E 004°36'6 5.9
2017-Mar-18 09:33N 51°47' E 004°38'9 8.9
2017-Mar-18 08:33N 51°51' E 004°25'1010.3
2017-Mar-18 07:33N 51°57' E 004°11'1413.9
2017-Mar-18 06:33N 52°02' E 003°50'13014.4
2017-Mar-17 21:33N 53°11' E 000°50'1514.7
2017-Mar-17 20:33N 53°22' E 000°33'1514.7
2017-Mar-17 19:33N 53°32' E 000°15'1211.8
2017-Mar-17 18:33N 53°36' W 000°04'5 5.0
2017-Mar-17 17:33N 53°38' W 000°12'0 0.1
2017-Mar-17 16:33N 53°38' W 000°12'0 0.0
2017-Mar-17 15:21N 53°38' W 000°12'0 0.0
2017-Mar-17 14:33N 53°38' W 000°12'0 0.0
2017-Mar-17 13:33N 53°38' W 000°12'0 0.0
2017-Mar-17 12:33N 53°38' W 000°12'0 0.0
2017-Mar-17 11:33N 53°38' W 000°12'0 0.0
2017-Mar-17 10:33N 53°38' W 000°12'2 2.2
2017-Mar-17 09:33N 53°38' W 000°08'1110.5
2017-Mar-17 08:33N 53°33' E 000°08'10 9.6
2017-Mar-17 07:33N 53°29' E 000°23'1211.6
2017-Mar-17 06:33N 53°20' E 000°36'13212.8
2017-Mar-16 20:16N 52°07' E 003°37'1013.9
2017-Mar-16 19:34N 52°04' E 003°52'1211.7
2017-Mar-16 18:33N 51°58' E 004°08'1111.4
2017-Mar-16 17:33N 51°51' E 004°22'9 9.3
2017-Mar-16 16:34N 51°48' E 004°37'7 7.2
2017-Mar-16 15:33N 51°41' E 004°36'0 0.1
2017-Mar-16 14:30N 51°41' E 004°36'0 0.0
2017-Mar-16 13:18N 51°41' E 004°36'0 0.0
2017-Mar-16 12:32N 51°41' E 004°36'0 0.0
2017-Mar-16 11:33N 51°41' E 004°36'0 0.0
2017-Mar-16 10:33N 51°41' E 004°36'0 0.0
2017-Mar-16 09:33N 51°41' E 004°36'0 0.0
2017-Mar-16 08:33N 51°41' E 004°36'1 0.7
2017-Mar-16 07:33N 51°42' E 004°35'8 7.5
2017-Mar-16 06:33N 51°49' E 004°34'9 9.4
2017-Mar-16 05:33N 51°53' E 004°20'1312.7
2017-Mar-16 04:33N 51°59' E 004°02'1312.0
2017-Mar-16 03:30N 52°03' E 003°42'1010.1
2017-Mar-16 02:32N 52°08' E 003°29'1110.6
2017-Mar-16 01:31N 52°13' E 003°14'1111.5
2017-Mar-16 00:33N 52°19' E 002°58'1711.9
2017-Mar-15 23:08N 52°28' E 002°35'2113.3
2017-Mar-15 21:32N 52°40' E 002°06'9114.7
2017-Mar-15 15:22N 53°34' E 000°05'1012.5
2017-Mar-15 14:33N 53°38' W 000°11'1 0.6
2017-Mar-15 13:33N 53°38' W 000°12'0 0.0
2017-Mar-15 12:33N 53°38' W 000°12'0 0.0
2017-Mar-15 11:33N 53°38' W 000°12'0 0.0
2017-Mar-15 10:33N 53°38' W 000°12'0 0.0
2017-Mar-15 09:33N 53°38' W 000°12'0 0.0
2017-Mar-15 08:30N 53°38' W 000°12'0 0.0
2017-Mar-15 07:33N 53°38' W 000°12'0 0.1
2017-Mar-15 06:33N 53°38' W 000°12'6 5.8
2017-Mar-15 05:33N 53°36' W 000°02'  

Dump ship's entire track history